sensor_id;sensor_type;location;lat;lon;timestamp;pressure;altitude;pressure_sealevel;temperature;humidity
4022;BME280;2025;48.260;16.432;2023-11-18T00:00:47;100231.06;;;4.22;66.26
4022;BME280;2025;48.260;16.432;2023-11-18T00:03:14;100234.47;;;4.23;66.43
4022;BME280;2025;48.260;16.432;2023-11-18T00:05:41;100234.25;;;4.26;66.38
4022;BME280;2025;48.260;16.432;2023-11-18T00:08:08;100238.97;;;4.21;66.63
4022;BME280;2025;48.260;16.432;2023-11-18T00:10:36;100234.00;;;4.18;66.67
4022;BME280;2025;48.260;16.432;2023-11-18T00:13:03;100244.09;;;4.22;66.89
4022;BME280;2025;48.260;16.432;2023-11-18T00:15:30;100239.81;;;4.21;66.88
4022;BME280;2025;48.260;16.432;2023-11-18T00:18:00;100240.28;;;4.15;66.92
4022;BME280;2025;48.260;16.432;2023-11-18T00:20:27;100241.69;;;4.08;67.85
4022;BME280;2025;48.260;16.432;2023-11-18T00:22:56;100244.50;;;4.05;67.11
4022;BME280;2025;48.260;16.432;2023-11-18T00:25:23;100247.84;;;4.07;68.23
4022;BME280;2025;48.260;16.432;2023-11-18T00:27:51;100239.09;;;4.08;68.33
4022;BME280;2025;48.260;16.432;2023-11-18T00:30:19;100240.25;;;4.04;67.87
4022;BME280;2025;48.260;16.432;2023-11-18T00:32:46;100239.53;;;4.02;68.18
4022;BME280;2025;48.260;16.432;2023-11-18T00:35:13;100241.44;;;4.00;68.58
4022;BME280;2025;48.260;16.432;2023-11-18T00:37:41;100247.94;;;3.94;68.01
4022;BME280;2025;48.260;16.432;2023-11-18T00:40:09;100251.13;;;3.98;68.68
4022;BME280;2025;48.260;16.432;2023-11-18T00:42:37;100249.50;;;3.97;68.10
4022;BME280;2025;48.260;16.432;2023-11-18T00:45:07;100262.72;;;3.94;68.50
4022;BME280;2025;48.260;16.432;2023-11-18T00:47:34;100253.88;;;3.96;67.82
4022;BME280;2025;48.260;16.432;2023-11-18T00:50:01;100260.00;;;3.95;67.71
4022;BME280;2025;48.260;16.432;2023-11-18T00:52:28;100264.63;;;3.92;68.40
4022;BME280;2025;48.260;16.432;2023-11-18T00:54:55;100264.16;;;3.98;68.12
4022;BME280;2025;48.260;16.432;2023-11-18T00:57:22;100270.44;;;3.95;68.04
4022;BME280;2025;48.260;16.432;2023-11-18T00:59:49;100261.78;;;3.95;67.73
4022;BME280;2025;48.260;16.432;2023-11-18T01:02:17;100256.81;;;3.92;68.91
4022;BME280;2025;48.260;16.432;2023-11-18T01:04:44;100254.22;;;3.92;69.26
4022;BME280;2025;48.260;16.432;2023-11-18T01:07:12;100261.91;;;3.93;68.19
4022;BME280;2025;48.260;16.432;2023-11-18T01:09:39;100256.94;;;3.90;68.20
4022;BME280;2025;48.260;16.432;2023-11-18T01:12:06;100261.91;;;3.93;67.49
4022;BME280;2025;48.260;16.432;2023-11-18T01:14:36;100257.75;;;3.91;67.70
4022;BME280;2025;48.260;16.432;2023-11-18T01:17:04;100262.25;;;3.89;68.01
4022;BME280;2025;48.260;16.432;2023-11-18T01:19:32;100269.56;;;3.84;68.05
4022;BME280;2025;48.260;16.432;2023-11-18T01:22:00;100278.56;;;3.79;67.92
4022;BME280;2025;48.260;16.432;2023-11-18T01:24:30;100275.94;;;3.79;68.05
4022;BME280;2025;48.260;16.432;2023-11-18T01:26:57;100268.84;;;3.82;69.08
4022;BME280;2025;48.260;16.432;2023-11-18T01:29:24;100270.63;;;3.81;68.05
4022;BME280;2025;48.260;16.432;2023-11-18T01:31:52;100273.81;;;3.73;69.09
4022;BME280;2025;48.260;16.432;2023-11-18T01:34:21;100270.81;;;3.67;68.58
4022;BME280;2025;48.260;16.432;2023-11-18T01:36:49;100285.63;;;3.66;69.05
4022;BME280;2025;48.260;16.432;2023-11-18T01:39:16;100275.41;;;3.63;68.52
4022;BME280;2025;48.260;16.432;2023-11-18T01:41:44;100274.69;;;3.61;69.23
4022;BME280;2025;48.260;16.432;2023-11-18T01:44:11;100271.06;;;3.64;68.60
4022;BME280;2025;48.260;16.432;2023-11-18T01:46:40;100280.84;;;3.60;68.89
4022;BME280;2025;48.260;16.432;2023-11-18T01:49:11;100280.84;;;3.60;69.08
4022;BME280;2025;48.260;16.432;2023-11-18T01:51:40;100287.13;;;3.57;68.74
4022;BME280;2025;48.260;16.432;2023-11-18T01:54:09;100293.25;;;3.56;68.71
4022;BME280;2025;48.260;16.432;2023-11-18T01:56:40;100314.22;;;3.55;69.26
4022;BME280;2025;48.260;16.432;2023-11-18T01:59:08;100301.78;;;3.58;69.41
4022;BME280;2025;48.260;16.432;2023-11-18T02:01:35;100313.50;;;3.53;69.66
4022;BME280;2025;48.260;16.432;2023-11-18T02:04:05;100312.53;;;3.54;70.09
4022;BME280;2025;48.260;16.432;2023-11-18T02:06:33;100316.91;;;3.53;70.21
4022;BME280;2025;48.260;16.432;2023-11-18T02:09:02;100302.91;;;3.43;71.22
4022;BME280;2025;48.260;16.432;2023-11-18T02:11:35;100309.19;;;3.41;70.75
4022;BME280;2025;48.260;16.432;2023-11-18T02:14:07;100318.53;;;3.43;71.31
4022;BME280;2025;48.260;16.432;2023-11-18T02:16:37;100321.00;;;3.45;70.71
4022;BME280;2025;48.260;16.432;2023-11-18T02:19:09;100313.44;;;3.42;70.96
4022;BME280;2025;48.260;16.432;2023-11-18T02:21:38;100307.81;;;3.35;71.05
4022;BME280;2025;48.260;16.432;2023-11-18T02:24:06;100310.97;;;3.27;71.72
4022;BME280;2025;48.260;16.432;2023-11-18T02:26:35;100320.13;;;3.33;70.82
4022;BME280;2025;48.260;16.432;2023-11-18T02:29:02;100321.28;;;3.29;71.40
4022;BME280;2025;48.260;16.432;2023-11-18T02:31:33;100315.03;;;3.31;70.76
4022;BME280;2025;48.260;16.432;2023-11-18T02:34:08;100314.09;;;3.32;70.56
4022;BME280;2025;48.260;16.432;2023-11-18T02:36:43;100317.97;;;3.27;72.11
4022;BME280;2025;48.260;16.432;2023-11-18T02:39:15;100330.84;;;3.28;70.97
4022;BME280;2025;48.260;16.432;2023-11-18T02:41:51;100330.53;;;3.33;71.05
4022;BME280;2025;48.260;16.432;2023-11-18T02:44:20;100326.28;;;3.32;70.75
4022;BME280;2025;48.260;16.432;2023-11-18T02:46:48;100329.81;;;3.31;71.06
4022;BME280;2025;48.260;16.432;2023-11-18T02:49:16;100325.78;;;3.27;71.07
4022;BME280;2025;48.260;16.432;2023-11-18T02:51:43;100326.91;;;3.23;71.31
4022;BME280;2025;48.260;16.432;2023-11-18T02:54:13;100318.88;;;3.26;71.41
4022;BME280;2025;48.260;16.432;2023-11-18T02:56:42;100325.03;;;3.25;71.31
4022;BME280;2025;48.260;16.432;2023-11-18T02:59:10;100323.25;;;3.25;71.06
4022;BME280;2025;48.260;16.432;2023-11-18T03:01:37;100331.31;;;3.22;71.23
4022;BME280;2025;48.260;16.432;2023-11-18T03:04:05;100319.13;;;3.23;72.55
4022;BME280;2025;48.260;16.432;2023-11-18T03:06:32;100328.97;;;3.30;71.09
4022;BME280;2025;48.260;16.432;2023-11-18T03:09:00;100321.16;;;3.30;70.70
4022;BME280;2025;48.260;16.432;2023-11-18T03:11:28;100309.09;;;3.29;71.42
4022;BME280;2025;48.260;16.432;2023-11-18T03:13:56;100317.91;;;3.40;70.60
4022;BME280;2025;48.260;16.432;2023-11-18T03:16:25;100324.06;;;3.38;71.12
4022;BME280;2025;48.260;16.432;2023-11-18T03:18:52;100332.31;;;3.32;71.22
4022;BME280;2025;48.260;16.432;2023-11-18T03:21:20;100328.47;;;3.25;71.35
4022;BME280;2025;48.260;16.432;2023-11-18T03:23:47;100330.13;;;3.26;71.21
4022;BME280;2025;48.260;16.432;2023-11-18T03:26:14;100334.19;;;3.30;71.18
4022;BME280;2025;48.260;16.432;2023-11-18T03:28:41;100329.81;;;3.31;70.97
4022;BME280;2025;48.260;16.432;2023-11-18T03:31:08;100332.41;;;3.31;71.16
4022;BME280;2025;48.260;16.432;2023-11-18T03:33:38;100336.28;;;3.25;71.63
4022;BME280;2025;48.260;16.432;2023-11-18T03:36:06;100330.03;;;3.28;71.65
4022;BME280;2025;48.260;16.432;2023-11-18T03:38:34;100335.63;;;3.34;71.04
4022;BME280;2025;48.260;16.432;2023-11-18T03:41:01;100324.25;;;3.35;70.41
4022;BME280;2025;48.260;16.432;2023-11-18T03:43:28;100338.75;;;3.40;70.09
4022;BME280;2025;48.260;16.432;2023-11-18T03:45:54;100333.53;;;3.40;70.65
4022;BME280;2025;48.260;16.432;2023-11-18T03:48:22;100334.97;;;3.44;69.86
4022;BME280;2025;48.260;16.432;2023-11-18T03:50:51;100334.25;;;3.42;69.79
4022;BME280;2025;48.260;16.432;2023-11-18T03:53:19;100333.53;;;3.40;70.17
4022;BME280;2025;48.260;16.432;2023-11-18T03:55:46;100330.19;;;3.37;70.19
4022;BME280;2025;48.260;16.432;2023-11-18T03:58:13;100340.63;;;3.37;70.06
4022;BME280;2025;48.260;16.432;2023-11-18T04:00:40;100335.41;;;3.37;69.64
4022;BME280;2025;48.260;16.432;2023-11-18T04:03:07;100347.28;;;3.42;69.93
4022;BME280;2025;48.260;16.432;2023-11-18T04:05:35;100336.63;;;3.45;69.64
4022;BME280;2025;48.260;16.432;2023-11-18T04:08:05;100333.75;;;3.36;70.47
4022;BME280;2025;48.260;16.432;2023-11-18T04:10:33;100333.25;;;3.31;70.60
4022;BME280;2025;48.260;16.432;2023-11-18T04:13:00;100337.09;;;3.26;70.97
4022;BME280;2025;48.260;16.432;2023-11-18T04:15:27;100337.75;;;3.29;70.44
4022;BME280;2025;48.260;16.432;2023-11-18T04:17:54;100345.31;;;3.32;70.50
4022;BME280;2025;48.260;16.432;2023-11-18T04:20:21;100350.22;;;3.37;70.00
4022;BME280;2025;48.260;16.432;2023-11-18T04:22:48;100353.97;;;3.33;70.45
4022;BME280;2025;48.260;16.432;2023-11-18T04:25:17;100343.66;;;3.31;70.59
4022;BME280;2025;48.260;16.432;2023-11-18T04:27:44;100338.25;;;3.22;70.98
4022;BME280;2025;48.260;16.432;2023-11-18T04:30:11;100353.38;;;3.16;71.09
4022;BME280;2025;48.260;16.432;2023-11-18T04:32:38;100356.69;;;3.31;69.70
4022;BME280;2025;48.260;16.432;2023-11-18T04:35:08;100373.97;;;3.32;69.77
4022;BME280;2025;48.260;16.432;2023-11-18T04:37:37;100377.19;;;3.36;69.68
4022;BME280;2025;48.260;16.432;2023-11-18T04:40:08;100368.09;;;3.42;69.22
4022;BME280;2025;48.260;16.432;2023-11-18T04:42:39;100373.41;;;3.40;69.82
4022;BME280;2025;48.260;16.432;2023-11-18T04:45:06;100380.19;;;3.43;69.77
4022;BME280;2025;48.260;16.432;2023-11-18T04:47:35;100379.97;;;3.46;69.68
4022;BME280;2025;48.260;16.432;2023-11-18T04:50:04;100385.50;;;3.41;70.01
4022;BME280;2025;48.260;16.432;2023-11-18T04:52:31;100388.53;;;3.48;69.88
4022;BME280;2025;48.260;16.432;2023-11-18T04:55:00;100389.34;;;3.48;69.52
4022;BME280;2025;48.260;16.432;2023-11-18T04:57:27;100395.16;;;3.52;69.94
4022;BME280;2025;48.260;16.432;2023-11-18T04:59:56;100398.81;;;3.49;70.06
4022;BME280;2025;48.260;16.432;2023-11-18T05:02:23;100393.28;;;3.54;69.88
4022;BME280;2025;48.260;16.432;2023-11-18T05:04:50;100394.47;;;3.50;69.96
4022;BME280;2025;48.260;16.432;2023-11-18T05:07:17;100408.63;;;3.46;70.61
4022;BME280;2025;48.260;16.432;2023-11-18T05:09:44;100407.25;;;3.40;71.53
4022;BME280;2025;48.260;16.432;2023-11-18T05:12:11;100408.94;;;3.41;72.85
4022;BME280;2025;48.260;16.432;2023-11-18T05:14:38;100412.47;;;3.40;71.13
4022;BME280;2025;48.260;16.432;2023-11-18T05:17:06;100407.91;;;3.44;70.92
4022;BME280;2025;48.260;16.432;2023-11-18T05:19:34;100409.03;;;3.40;71.18
4022;BME280;2025;48.260;16.432;2023-11-18T05:22:01;100411.22;;;3.46;70.45
4022;BME280;2025;48.260;16.432;2023-11-18T05:24:28;100416.44;;;3.46;70.55
4022;BME280;2025;48.260;16.432;2023-11-18T05:26:55;100424.03;;;3.49;70.95
4022;BME280;2025;48.260;16.432;2023-11-18T05:29:22;100417.34;;;3.45;71.52
4022;BME280;2025;48.260;16.432;2023-11-18T05:31:51;100427.06;;;3.43;71.51
4022;BME280;2025;48.260;16.432;2023-11-18T05:34:21;100425.06;;;3.46;71.41
4022;BME280;2025;48.260;16.432;2023-11-18T05:36:48;100442.56;;;3.44;71.75
4022;BME280;2025;48.260;16.432;2023-11-18T05:39:19;100435.09;;;3.40;71.60
4022;BME280;2025;48.260;16.432;2023-11-18T05:41:47;100439.38;;;3.41;71.21
4022;BME280;2025;48.260;16.432;2023-11-18T05:44:17;100437.69;;;3.40;70.99
4022;BME280;2025;48.260;16.432;2023-11-18T05:46:44;100422.56;;;3.45;70.08
4022;BME280;2025;48.260;16.432;2023-11-18T05:49:13;100434.13;;;3.53;70.40
4022;BME280;2025;48.260;16.432;2023-11-18T05:51:41;100441.63;;;3.58;69.74
4022;BME280;2025;48.260;16.432;2023-11-18T05:54:08;100443.91;;;3.63;69.86
4022;BME280;2025;48.260;16.432;2023-11-18T05:56:35;100452.13;;;3.69;69.17
4022;BME280;2025;48.260;16.432;2023-11-18T05:59:03;100448.97;;;3.77;68.52
4022;BME280;2025;48.260;16.432;2023-11-18T06:01:30;100456.06;;;3.75;68.64
4022;BME280;2025;48.260;16.432;2023-11-18T06:03:57;100457.94;;;3.73;69.39
4022;BME280;2025;48.260;16.432;2023-11-18T06:06:25;100462.22;;;3.74;69.37
4022;BME280;2025;48.260;16.432;2023-11-18T06:08:53;100452.63;;;3.74;68.95
4022;BME280;2025;48.260;16.432;2023-11-18T06:11:23;100469.72;;;3.78;68.69
4022;BME280;2025;48.260;16.432;2023-11-18T06:13:51;100462.00;;;3.77;69.42
4022;BME280;2025;48.260;16.432;2023-11-18T06:16:19;100473.38;;;3.76;68.94
4022;BME280;2025;48.260;16.432;2023-11-18T06:18:49;100491.47;;;3.77;68.52
4022;BME280;2025;48.260;16.432;2023-11-18T06:21:17;100479.00;;;3.70;69.66
4022;BME280;2025;48.260;16.432;2023-11-18T06:23:45;100476.41;;;3.70;69.02
4022;BME280;2025;48.260;16.432;2023-11-18T06:26:14;100498.19;;;3.69;69.43
4022;BME280;2025;48.260;16.432;2023-11-18T06:28:42;100492.25;;;3.67;70.43
4022;BME280;2025;48.260;16.432;2023-11-18T06:31:09;100501.22;;;3.63;70.51
4022;BME280;2025;48.260;16.432;2023-11-18T06:33:38;100500.38;;;3.62;69.84
4022;BME280;2025;48.260;16.432;2023-11-18T06:36:08;100506.41;;;3.63;71.11
4022;BME280;2025;48.260;16.432;2023-11-18T06:38:37;100502.16;;;3.62;70.92
4022;BME280;2025;48.260;16.432;2023-11-18T06:41:04;100504.22;;;3.69;70.24
4022;BME280;2025;48.260;16.432;2023-11-18T06:43:36;100505.16;;;3.68;70.96
4022;BME280;2025;48.260;16.432;2023-11-18T06:46:20;100516.53;;;3.67;72.21
4022;BME280;2025;48.260;16.432;2023-11-18T06:48:48;100520.59;;;3.71;70.44
4022;BME280;2025;48.260;16.432;2023-11-18T06:51:15;100525.16;;;3.68;71.05
4022;BME280;2025;48.260;16.432;2023-11-18T06:53:42;100534.34;;;3.73;71.06
4022;BME280;2025;48.260;16.432;2023-11-18T06:56:10;100531.75;;;3.73;70.66
4022;BME280;2025;48.260;16.432;2023-11-18T06:58:39;100539.09;;;3.79;70.58
4022;BME280;2025;48.260;16.432;2023-11-18T07:01:08;100539.56;;;3.73;70.74
4022;BME280;2025;48.260;16.432;2023-11-18T07:03:35;100542.56;;;3.80;70.29
4022;BME280;2025;48.260;16.432;2023-11-18T07:06:03;100550.38;;;3.80;70.74
4022;BME280;2025;48.260;16.432;2023-11-18T07:08:31;100550.25;;;3.82;71.01
4022;BME280;2025;48.260;16.432;2023-11-18T07:10:58;100560.50;;;3.85;70.17
4022;BME280;2025;48.260;16.432;2023-11-18T07:13:27;100564.13;;;3.82;71.44
4022;BME280;2025;48.260;16.432;2023-11-18T07:15:55;100568.50;;;3.82;70.69
4022;BME280;2025;48.260;16.432;2023-11-18T07:18:23;100560.81;;;3.80;71.61
4022;BME280;2025;48.260;16.432;2023-11-18T07:20:50;100565.91;;;3.82;70.72
4022;BME280;2025;48.260;16.432;2023-11-18T07:23:18;100568.63;;;3.80;70.55
4022;BME280;2025;48.260;16.432;2023-11-18T07:25:45;100573.94;;;3.78;72.46
4022;BME280;2025;48.260;16.432;2023-11-18T07:28:12;100576.31;;;3.82;70.23
4022;BME280;2025;48.260;16.432;2023-11-18T07:30:42;100577.16;;;3.82;70.55
4022;BME280;2025;48.260;16.432;2023-11-18T07:33:14;100582.25;;;3.84;71.06
4022;BME280;2025;48.260;16.432;2023-11-18T07:35:41;100578.94;;;3.82;70.56
4022;BME280;2025;48.260;16.432;2023-11-18T07:38:08;100577.47;;;3.90;70.40
4022;BME280;2025;48.260;16.432;2023-11-18T07:40:36;100591.84;;;3.96;70.30
4022;BME280;2025;48.260;16.432;2023-11-18T07:43:03;100582.38;;;3.95;70.64
4022;BME280;2025;48.260;16.432;2023-11-18T07:45:34;100585.19;;;3.92;70.10
4022;BME280;2025;48.260;16.432;2023-11-18T07:48:03;100583.09;;;3.97;70.05
4022;BME280;2025;48.260;16.432;2023-11-18T07:50:33;100594.75;;;4.04;69.21
4022;BME280;2025;48.260;16.432;2023-11-18T07:53:00;100586.72;;;4.07;69.22
4022;BME280;2025;48.260;16.432;2023-11-18T07:55:28;100595.50;;;4.06;69.76
4022;BME280;2025;48.260;16.432;2023-11-18T07:57:55;100593.63;;;4.08;69.39
4022;BME280;2025;48.260;16.432;2023-11-18T08:00:22;100587.22;;;4.12;68.97
4022;BME280;2025;48.260;16.432;2023-11-18T08:02:50;100591.28;;;4.16;68.88
4022;BME280;2025;48.260;16.432;2023-11-18T08:05:19;100585.66;;;4.10;69.15
4022;BME280;2025;48.260;16.432;2023-11-18T08:07:50;100591.50;;;4.13;69.06
4022;BME280;2025;48.260;16.432;2023-11-18T08:10:17;100586.06;;;4.16;68.96
4022;BME280;2025;48.260;16.432;2023-11-18T08:12:45;100596.50;;;4.16;68.93
4022;BME280;2025;48.260;16.432;2023-11-18T08:15:12;100597.22;;;4.18;67.86
4022;BME280;2025;48.260;16.432;2023-11-18T08:17:39;100599.53;;;4.23;68.60
4022;BME280;2025;48.260;16.432;2023-11-18T08:20:07;100592.66;;;4.22;69.25
4022;BME280;2025;48.260;16.432;2023-11-18T08:22:40;100603.69;;;4.26;68.47
4022;BME280;2025;48.260;16.432;2023-11-18T08:25:09;100588.75;;;4.28;67.96
4022;BME280;2025;48.260;16.432;2023-11-18T08:27:37;100603.44;;;4.29;68.02
4022;BME280;2025;48.260;16.432;2023-11-18T08:30:05;100599.38;;;4.37;67.23
4022;BME280;2025;48.260;16.432;2023-11-18T08:32:36;100594.88;;;4.39;67.78
4022;BME280;2025;48.260;16.432;2023-11-18T08:35:05;100601.25;;;4.35;67.15
4022;BME280;2025;48.260;16.432;2023-11-18T08:37:33;100590.28;;;4.43;67.04
4022;BME280;2025;48.260;16.432;2023-11-18T08:40:01;100603.22;;;4.44;67.65
4022;BME280;2025;48.260;16.432;2023-11-18T08:42:30;100602.16;;;4.47;67.95
4022;BME280;2025;48.260;16.432;2023-11-18T08:44:57;100592.13;;;4.54;68.15
4022;BME280;2025;48.260;16.432;2023-11-18T08:47:24;100586.66;;;4.57;67.83
4022;BME280;2025;48.260;16.432;2023-11-18T08:49:51;100593.06;;;4.53;67.38
4022;BME280;2025;48.260;16.432;2023-11-18T08:52:18;100593.50;;;4.47;67.23
4022;BME280;2025;48.260;16.432;2023-11-18T08:54:45;100605.16;;;4.54;67.75
4022;BME280;2025;48.260;16.432;2023-11-18T08:57:26;100606.00;;;4.54;67.63
4022;BME280;2025;48.260;16.432;2023-11-18T09:00:01;100606.78;;;4.68;67.48
4022;BME280;2025;48.260;16.432;2023-11-18T09:02:34;100611.91;;;4.69;66.98
4022;BME280;2025;48.260;16.432;2023-11-18T09:05:03;100600.31;;;4.73;66.78
4022;BME280;2025;48.260;16.432;2023-11-18T09:07:38;100602.47;;;4.79;67.33
4022;BME280;2025;48.260;16.432;2023-11-18T09:10:06;100595.75;;;4.88;66.75
4022;BME280;2025;48.260;16.432;2023-11-18T09:12:34;100602.19;;;4.95;66.99
4022;BME280;2025;48.260;16.432;2023-11-18T09:15:03;100598.41;;;4.99;66.42
4022;BME280;2025;48.260;16.432;2023-11-18T09:17:30;100597.41;;;4.89;65.42
4022;BME280;2025;48.260;16.432;2023-11-18T09:19:57;100603.41;;;5.02;65.42
4022;BME280;2025;48.260;16.432;2023-11-18T09:22:24;100610.50;;;5.00;65.87
4022;BME280;2025;48.260;16.432;2023-11-18T09:24:51;100616.69;;;4.99;67.04
4022;BME280;2025;48.260;16.432;2023-11-18T09:27:18;100619.69;;;5.06;67.45
4022;BME280;2025;48.260;16.432;2023-11-18T09:29:45;100619.34;;;5.11;67.48
4022;BME280;2025;48.260;16.432;2023-11-18T09:32:13;100614.00;;;5.12;66.03
4022;BME280;2025;48.260;16.432;2023-11-18T09:34:40;100624.44;;;5.12;66.35
4022;BME280;2025;48.260;16.432;2023-11-18T09:37:07;100622.16;;;5.07;66.53
4022;BME280;2025;48.260;16.432;2023-11-18T09:39:35;100621.97;;;5.11;66.05
4022;BME280;2025;48.260;16.432;2023-11-18T09:42:07;100619.59;;;5.19;65.78
4022;BME280;2025;48.260;16.432;2023-11-18T09:44:36;100615.44;;;5.16;65.44
4022;BME280;2025;48.260;16.432;2023-11-18T09:47:07;100619.09;;;5.14;65.76
4022;BME280;2025;48.260;16.432;2023-11-18T09:49:41;100611.28;;;5.14;66.47
4022;BME280;2025;48.260;16.432;2023-11-18T09:52:16;100608.75;;;5.12;67.13
4022;BME280;2025;48.260;16.432;2023-11-18T09:54:58;100609.59;;;5.13;65.91
4022;BME280;2025;48.260;16.432;2023-11-18T09:57:32;100617.75;;;5.08;66.31
4022;BME280;2025;48.260;16.432;2023-11-18T10:00:04;100604.59;;;5.10;66.27
4022;BME280;2025;48.260;16.432;2023-11-18T10:02:46;100618.72;;;5.07;67.38
4022;BME280;2025;48.260;16.432;2023-11-18T10:05:18;100615.66;;;5.13;66.62
4022;BME280;2025;48.260;16.432;2023-11-18T10:07:46;100630.47;;;5.13;66.57
4022;BME280;2025;48.260;16.432;2023-11-18T10:10:14;100624.22;;;5.15;66.84
4022;BME280;2025;48.260;16.432;2023-11-18T10:12:42;100622.94;;;5.21;67.03
4022;BME280;2025;48.260;16.432;2023-11-18T10:15:11;100623.44;;;5.02;67.15
4022;BME280;2025;48.260;16.432;2023-11-18T10:17:42;100622.50;;;5.03;68.01
4022;BME280;2025;48.260;16.432;2023-11-18T10:20:22;100621.72;;;5.14;68.59
4022;BME280;2025;48.260;16.432;2023-11-18T10:23:06;100630.03;;;5.19;67.71
4022;BME280;2025;48.260;16.432;2023-11-18T10:25:35;100625.88;;;5.16;68.23
4022;BME280;2025;48.260;16.432;2023-11-18T10:28:06;100618.03;;;5.16;67.26
4022;BME280;2025;48.260;16.432;2023-11-18T10:30:43;100638.44;;;5.11;67.69
4022;BME280;2025;48.260;16.432;2023-11-18T10:33:14;100637.63;;;5.22;67.65
4022;BME280;2025;48.260;16.432;2023-11-18T10:35:50;100625.16;;;5.14;66.41
4022;BME280;2025;48.260;16.432;2023-11-18T10:38:21;100627.19;;;5.11;67.52
4022;BME280;2025;48.260;16.432;2023-11-18T10:40:53;100626.72;;;5.17;67.10
4022;BME280;2025;48.260;16.432;2023-11-18T10:43:21;100618.88;;;5.17;66.20
4022;BME280;2025;48.260;16.432;2023-11-18T10:45:51;100628.44;;;5.05;65.89
4022;BME280;2025;48.260;16.432;2023-11-18T10:48:18;100631.63;;;4.97;67.79
4022;BME280;2025;48.260;16.432;2023-11-18T10:50:47;100623.44;;;5.02;67.53
4022;BME280;2025;48.260;16.432;2023-11-18T10:53:18;100622.06;;;5.09;67.44
4022;BME280;2025;48.260;16.432;2023-11-18T10:55:47;100619.38;;;5.22;67.64
4022;BME280;2025;48.260;16.432;2023-11-18T10:58:16;100615.81;;;5.23;66.73
4022;BME280;2025;48.260;16.432;2023-11-18T11:00:47;100620.69;;;5.27;66.47
4022;BME280;2025;48.260;16.432;2023-11-18T11:03:15;100630.28;;;5.16;66.15
4022;BME280;2025;48.260;16.432;2023-11-18T11:05:44;100609.50;;;5.14;66.02
4022;BME280;2025;48.260;16.432;2023-11-18T11:08:14;100624.81;;;5.19;66.21
4022;BME280;2025;48.260;16.432;2023-11-18T11:10:43;100621.81;;;5.12;66.65
4022;BME280;2025;48.260;16.432;2023-11-18T11:13:10;100627.03;;;5.12;66.83
4022;BME280;2025;48.260;16.432;2023-11-18T11:15:41;100619.69;;;5.17;67.05
4022;BME280;2025;48.260;16.432;2023-11-18T11:18:12;100619.44;;;5.09;67.62
4022;BME280;2025;48.260;16.432;2023-11-18T11:20:56;100626.50;;;5.20;66.17
4022;BME280;2025;48.260;16.432;2023-11-18T11:23:36;100632.16;;;5.14;67.73
4022;BME280;2025;48.260;16.432;2023-11-18T11:26:20;100627.03;;;5.12;67.88
4022;BME280;2025;48.260;16.432;2023-11-18T11:29:00;100623.28;;;5.16;68.21
4022;BME280;2025;48.260;16.432;2023-11-18T11:31:32;100631.94;;;5.17;68.21
4022;BME280;2025;48.260;16.432;2023-11-18T11:34:04;100641.16;;;5.10;68.78
4022;BME280;2025;48.260;16.432;2023-11-18T11:36:36;100638.44;;;5.11;68.80
4022;BME280;2025;48.260;16.432;2023-11-18T11:39:07;100638.59;;;5.21;70.56
4022;BME280;2025;48.260;16.432;2023-11-18T11:41:44;100645.59;;;5.20;69.08
4022;BME280;2025;48.260;16.432;2023-11-18T11:44:12;100651.09;;;5.28;69.37
4022;BME280;2025;48.260;16.432;2023-11-18T11:46:40;100658.66;;;5.20;69.01
4022;BME280;2025;48.260;16.432;2023-11-18T11:49:10;100651.03;;;5.17;70.21
4022;BME280;2025;48.260;16.432;2023-11-18T11:51:46;100649.03;;;5.21;69.87
4022;BME280;2025;48.260;16.432;2023-11-18T11:54:19;100646.28;;;5.11;69.55
4022;BME280;2025;48.260;16.432;2023-11-18T11:56:49;100654.94;;;5.12;69.88
4022;BME280;2025;48.260;16.432;2023-11-18T11:59:35;100652.09;;;5.15;69.49
4022;BME280;2025;48.260;16.432;2023-11-18T12:02:03;100651.72;;;5.08;70.25
4022;BME280;2025;48.260;16.432;2023-11-18T12:04:35;100654.50;;;5.18;71.24
4022;BME280;2025;48.260;16.432;2023-11-18T12:07:04;100648.22;;;5.20;71.03
4022;BME280;2025;48.260;16.432;2023-11-18T12:09:32;100662.81;;;5.23;71.23
4022;BME280;2025;48.260;16.432;2023-11-18T12:12:05;100658.81;;;5.30;70.34
4022;BME280;2025;48.260;16.432;2023-11-18T12:14:49;100664.38;;;5.25;70.16
4022;BME280;2025;48.260;16.432;2023-11-18T12:17:18;100662.09;;;5.21;69.09
4022;BME280;2025;48.260;16.432;2023-11-18T12:19:48;100657.59;;;5.23;68.50
4022;BME280;2025;48.260;16.432;2023-11-18T12:22:16;100655.25;;;5.31;67.15
4022;BME280;2025;48.260;16.432;2023-11-18T12:25:28;100646.25;;;5.35;67.31
4022;BME280;2025;48.260;16.432;2023-11-18T12:27:58;100653.16;;;5.36;65.53
4022;BME280;2025;48.260;16.432;2023-11-18T12:30:46;100660.66;;;5.41;66.51
4022;BME280;2025;48.260;16.432;2023-11-18T12:33:21;100660.19;;;5.47;65.30
4022;BME280;2025;48.260;16.432;2023-11-18T12:42:08;100669.81;;;5.46;65.58
4022;BME280;2025;48.260;16.432;2023-11-18T12:44:59;100670.03;;;5.43;66.04
4022;BME280;2025;48.260;16.432;2023-11-18T12:47:42;100670.63;;;5.47;66.07
4022;BME280;2025;48.260;16.432;2023-11-18T12:50:11;100679.63;;;5.43;64.95
4022;BME280;2025;48.260;16.432;2023-11-18T12:52:49;100672.75;;;5.42;65.78
4022;BME280;2025;48.260;16.432;2023-11-18T12:55:17;100672.84;;;5.40;65.22
4022;BME280;2025;48.260;16.432;2023-11-18T12:57:46;100683.69;;;5.47;65.43
4022;BME280;2025;48.260;16.432;2023-11-18T13:00:16;100674.78;;;5.49;65.72
4022;BME280;2025;48.260;16.432;2023-11-18T13:02:52;100688.91;;;5.47;64.76
4022;BME280;2025;48.260;16.432;2023-11-18T13:05:19;100696.66;;;5.48;63.88
4022;BME280;2025;48.260;16.432;2023-11-18T13:07:47;100696.41;;;5.52;64.51
4022;BME280;2025;48.260;16.432;2023-11-18T13:10:14;100692.16;;;5.51;63.98
4022;BME280;2025;48.260;16.432;2023-11-18T13:12:42;100693.66;;;5.42;64.16
4022;BME280;2025;48.260;16.432;2023-11-18T13:15:10;100696.38;;;5.40;64.73
4022;BME280;2025;48.260;16.432;2023-11-18T13:17:39;100693.75;;;5.40;65.36
4022;BME280;2025;48.260;16.432;2023-11-18T13:20:14;100702.06;;;5.34;65.94
4022;BME280;2025;48.260;16.432;2023-11-18T13:22:43;100695.44;;;5.41;64.87
4022;BME280;2025;48.260;16.432;2023-11-18T13:25:10;100694.09;;;5.36;65.65
4022;BME280;2025;48.260;16.432;2023-11-18T13:27:39;100700.28;;;5.35;66.66